createdAt,value
2023-03-29T00:00:21.981Z,61.77
2023-03-29T00:02:49.489Z,62.01
2023-03-29T00:05:19.580Z,62.73
2023-03-29T00:07:46.986Z,62.11
2023-03-29T00:10:14.666Z,61.77
2023-03-29T00:12:42.045Z,60.95
2023-03-29T00:15:09.706Z,62.54
2023-03-29T00:17:37.328Z,62.86
2023-03-29T00:20:06.217Z,60.77
2023-03-29T00:22:33.773Z,60.60
2023-03-29T00:25:01.102Z,60.77
2023-03-29T00:27:28.445Z,66.00
2023-03-29T00:29:56.494Z,61.59
2023-03-29T00:32:23.977Z,61.77
2023-03-29T00:34:51.906Z,61.92
2023-03-29T00:37:19.485Z,63.11
2023-03-29T00:39:46.921Z,62.56
2023-03-29T00:42:16.640Z,62.42
2023-03-29T00:45:02.166Z,61.72
2023-03-29T00:47:43.768Z,63.75
2023-03-29T00:50:28.454Z,61.93
2023-03-29T00:53:10.608Z,62.65
2023-03-29T00:55:43.221Z,66.02
2023-03-29T00:58:15.694Z,63.03
2023-03-29T01:01:07.490Z,62.09
2023-03-29T01:03:42.618Z,61.03
2023-03-29T01:06:13.153Z,65.18
2023-03-29T01:08:49.768Z,61.20
2023-03-29T01:11:22.610Z,60.56
2023-03-29T01:14:02.961Z,60.48
2023-03-29T01:16:32.455Z,67.33
2023-03-29T01:19:00.114Z,61.19
2023-03-29T01:21:52.948Z,60.81
2023-03-29T01:24:32.320Z,61.36
2023-03-29T01:27:02.511Z,62.60
2023-03-29T01:29:46.887Z,60.85
2023-03-29T01:32:23.849Z,60.88
2023-03-29T01:34:58.410Z,60.88
2023-03-29T01:37:34.549Z,62.34
2023-03-29T01:40:02.232Z,60.94
2023-03-29T01:42:49.294Z,61.11
2023-03-29T01:45:25.689Z,63.37
2023-03-29T01:48:23.026Z,63.05
2023-03-29T01:50:53.524Z,61.80
2023-03-29T01:53:32.628Z,62.54
2023-03-29T01:56:06.913Z,69.14
2023-03-29T01:58:38.750Z,64.20
2023-03-29T02:01:09.435Z,63.51
2023-03-29T02:03:41.740Z,64.43
2023-03-29T02:06:17.240Z,66.83
2023-03-29T02:08:46.086Z,65.19
2023-03-29T02:11:14.412Z,65.50
2023-03-29T02:13:41.747Z,65.69
2023-03-29T02:16:11.508Z,67.95
2023-03-29T02:18:46.021Z,65.53
2023-03-29T02:21:32.661Z,65.87
2023-03-29T02:24:05.219Z,65.45
2023-03-29T02:26:32.810Z,71.55
2023-03-29T02:29:00.509Z,67.15
2023-03-29T02:31:27.803Z,67.21
2023-03-29T02:34:09.457Z,67.81
2023-03-29T02:36:50.690Z,68.89
2023-03-29T02:39:19.613Z,68.06
2023-03-29T02:41:50.444Z,68.61
2023-03-29T02:44:22.430Z,69.55
2023-03-29T02:46:53.702Z,74.77
2023-03-29T02:49:21.314Z,69.23
2023-03-29T02:51:52.617Z,69.66
2023-03-29T02:54:23.443Z,71.34
2023-03-29T02:56:59.296Z,78.27
2023-03-29T02:59:27.229Z,72.35
2023-03-29T03:01:54.542Z,71.33
2023-03-29T03:04:22.237Z,71.85
2023-03-29T03:06:49.824Z,73.99
2023-03-29T03:09:18.022Z,72.67
2023-03-29T03:11:45.409Z,72.80
2023-03-29T03:14:12.859Z,72.34
2023-03-29T03:16:40.188Z,74.73
2023-03-29T03:19:07.973Z,75.02
2023-03-29T03:21:36.284Z,74.04
2023-03-29T03:24:04.789Z,74.63
2023-03-29T03:26:32.132Z,76.93
2023-03-29T03:28:59.613Z,75.45
2023-03-29T03:31:27.128Z,74.89
2023-03-29T03:33:54.488Z,75.02
2023-03-29T03:36:21.796Z,74.78
2023-03-29T03:38:49.097Z,76.68
2023-03-29T03:41:16.639Z,74.37
2023-03-29T03:43:47.194Z,75.67
2023-03-29T03:46:17.878Z,76.57
2023-03-29T03:48:46.635Z,67.63
2023-03-29T03:51:15.063Z,61.53
2023-03-29T03:53:42.977Z,60.04
2023-03-29T03:56:11.109Z,58.25
2023-03-29T03:58:39.396Z,55.17
2023-03-29T04:01:08.300Z,63.02
2023-03-29T04:03:37.508Z,57.07
2023-03-29T04:06:06.636Z,63.53
2023-03-29T04:08:34.912Z,55.92
2023-03-29T04:11:03.026Z,56.71
2023-03-29T04:13:31.145Z,60.26
2023-03-29T04:16:01.387Z,65.67
2023-03-29T04:18:29.329Z,56.98
2023-03-29T04:20:57.336Z,60.48
2023-03-29T04:23:24.758Z,67.82
2023-03-29T04:25:54.999Z,69.01
2023-03-29T04:28:22.303Z,70.69
2023-03-29T04:30:50.066Z,70.62
2023-03-29T04:33:17.558Z,72.02
2023-03-29T04:35:44.980Z,73.85
2023-03-29T04:38:12.618Z,71.56
2023-03-29T04:40:39.940Z,68.97
2023-03-29T04:43:07.479Z,65.46
2023-03-29T04:45:34.916Z,67.32
2023-03-29T04:48:02.357Z,63.47
2023-03-29T04:50:29.926Z,64.87
2023-03-29T04:52:57.307Z,63.63
2023-03-29T04:55:24.662Z,63.67
2023-03-29T04:57:52.649Z,61.74
2023-03-29T05:00:20.432Z,64.27
2023-03-29T05:02:48.752Z,62.89
2023-03-29T05:05:16.656Z,60.92
2023-03-29T05:07:51.139Z,58.16
2023-03-29T05:10:19.006Z,57.10
2023-03-29T05:12:47.698Z,58.77
2023-03-29T05:15:15.482Z,55.37
2023-03-29T05:17:43.060Z,54.92
2023-03-29T05:20:10.672Z,59.62
2023-03-29T05:22:38.087Z,53.98
2023-03-29T05:25:06.465Z,54.63
2023-03-29T05:27:34.914Z,62.89
2023-03-29T05:30:02.400Z,54.20
2023-03-29T05:32:30.479Z,53.76
2023-03-29T05:34:57.971Z,50.73
2023-03-29T05:37:25.644Z,53.84
2023-03-29T05:39:52.947Z,49.38
2023-03-29T05:42:21.999Z,47.38
2023-03-29T05:44:50.677Z,48.23
2023-03-29T05:47:19.966Z,49.84
2023-03-29T05:49:47.313Z,47.87
2023-03-29T05:52:14.947Z,46.74
2023-03-29T05:54:42.362Z,46.85
2023-03-29T05:57:09.699Z,46.29
2023-03-29T05:59:37.125Z,44.85
2023-03-29T06:02:05.184Z,42.03
2023-03-29T06:04:33.601Z,42.31
2023-03-29T06:07:01.043Z,41.38
2023-03-29T06:09:28.418Z,40.96
2023-03-29T06:11:55.664Z,38.51
2023-03-29T06:14:23.236Z,38.04
2023-03-29T06:16:51.277Z,37.96
2023-03-29T06:19:20.302Z,39.83
2023-03-29T06:21:47.773Z,38.19
2023-03-29T06:24:15.141Z,38.08
2023-03-29T06:26:43.732Z,38.33
2023-03-29T06:29:11.200Z,40.18
2023-03-29T06:31:38.615Z,39.96
2023-03-29T06:34:05.971Z,38.00
2023-03-29T06:36:33.645Z,37.75
2023-03-29T06:39:01.037Z,41.33
2023-03-29T06:41:28.913Z,39.32
2023-03-29T06:43:56.331Z,38.90
2023-03-29T06:46:24.353Z,38.32
2023-03-29T06:48:51.982Z,39.21
2023-03-29T06:51:22.686Z,39.97
2023-03-29T06:53:51.484Z,39.74
2023-03-29T06:56:19.656Z,40.84
2023-03-29T06:58:47.148Z,41.41
2023-03-29T07:01:14.692Z,41.40
2023-03-29T07:03:43.656Z,40.63
2023-03-29T07:06:13.385Z,39.92
2023-03-29T07:08:41.397Z,39.87
2023-03-29T07:11:10.778Z,40.07
2023-03-29T07:13:42.035Z,40.56
2023-03-29T07:16:10.714Z,40.00
2023-03-29T07:18:42.825Z,42.03
2023-03-29T07:21:12.463Z,42.95
2023-03-29T07:23:40.227Z,41.09
2023-03-29T07:26:08.676Z,42.43
2023-03-29T07:28:36.578Z,42.73
2023-03-29T07:31:10.409Z,46.06
2023-03-29T07:33:39.420Z,43.62
2023-03-29T07:36:08.220Z,46.61
2023-03-29T07:38:35.742Z,43.10
2023-03-29T07:41:05.702Z,41.02
2023-03-29T07:43:33.285Z,40.71
2023-03-29T07:46:02.189Z,41.77
2023-03-29T07:48:30.545Z,41.36
2023-03-29T07:50:58.011Z,41.66
2023-03-29T07:53:25.403Z,37.38
2023-03-29T07:55:52.818Z,37.25
2023-03-29T07:58:20.402Z,37.24
2023-03-29T08:00:47.824Z,37.89
2023-03-29T08:03:15.663Z,37.18
2023-03-29T08:05:43.362Z,37.72
2023-03-29T08:08:11.082Z,36.58
2023-03-29T08:10:38.521Z,37.67
2023-03-29T08:13:08.237Z,37.31
2023-03-29T08:15:36.952Z,37.92
2023-03-29T08:18:04.524Z,37.68
2023-03-29T08:20:32.177Z,39.78
2023-03-29T08:22:59.550Z,37.68
2023-03-29T08:25:26.915Z,36.29
2023-03-29T08:27:54.411Z,35.97
2023-03-29T08:30:22.063Z,38.59
2023-03-29T08:32:51.630Z,34.98
2023-03-29T08:35:22.214Z,35.53
2023-03-29T08:37:49.690Z,34.08
2023-03-29T08:40:21.633Z,39.09
2023-03-29T08:43:24.771Z,35.73
2023-03-29T08:46:01.197Z,35.63
2023-03-29T08:48:45.953Z,34.87
2023-03-29T08:51:28.496Z,38.54
2023-03-29T08:54:04.277Z,34.91
2023-03-29T08:56:35.871Z,34.28
2023-03-29T08:59:03.700Z,34.48
2023-03-29T09:01:34.642Z,34.54
2023-03-29T09:04:13.939Z,33.25
2023-03-29T09:06:41.269Z,34.27
2023-03-29T09:09:15.758Z,33.79
2023-03-29T09:12:12.481Z,33.56
2023-03-29T09:14:45.719Z,32.54
2023-03-29T09:17:37.902Z,33.34
2023-03-29T09:20:05.395Z,39.47
2023-03-29T09:22:56.791Z,31.34
2023-03-29T09:25:38.346Z,31.05
2023-03-29T09:28:25.425Z,31.18
2023-03-29T09:31:02.633Z,33.04
2023-03-29T09:33:34.187Z,31.42
2023-03-29T09:36:08.992Z,31.07
2023-03-29T09:38:43.016Z,31.65
2023-03-29T09:41:31.950Z,33.94
2023-03-29T09:44:05.779Z,30.96
2023-03-29T09:46:42.122Z,30.65
2023-03-29T09:49:18.637Z,33.43
2023-03-29T09:51:50.035Z,30.08
2023-03-29T09:54:17.285Z,30.25
2023-03-29T09:56:44.735Z,30.25
2023-03-29T09:59:12.357Z,29.58
2023-03-29T10:01:42.925Z,29.64
2023-03-29T10:04:12.211Z,29.38
2023-03-29T10:06:46.066Z,31.63
2023-03-29T10:09:22.624Z,29.67
2023-03-29T10:11:56.644Z,28.32
2023-03-29T10:14:35.710Z,26.84
2023-03-29T10:17:11.087Z,27.35
2023-03-29T10:19:38.458Z,26.89
2023-03-29T10:22:14.578Z,28.76
2023-03-29T10:24:50.854Z,30.93
2023-03-29T10:27:24.817Z,32.47
2023-03-29T10:29:54.229Z,27.84
2023-03-29T10:32:34.765Z,28.53
2023-03-29T10:35:23.866Z,25.28
2023-03-29T10:37:53.485Z,27.32
2023-03-29T10:40:34.566Z,28.14
2023-03-29T10:43:13.611Z,27.13
2023-03-29T10:45:41.327Z,27.24
2023-03-29T10:48:16.348Z,27.29
2023-03-29T10:50:50.198Z,27.07
2023-03-29T10:53:27.001Z,27.08
2023-03-29T10:56:08.303Z,28.28
2023-03-29T10:59:06.794Z,30.75
2023-03-29T11:02:12.044Z,27.63
2023-03-29T11:04:43.111Z,30.19
2023-03-29T11:07:21.619Z,28.21
2023-03-29T11:10:26.153Z,26.41
2023-03-29T11:13:08.221Z,26.14
2023-03-29T11:15:44.701Z,25.40
2023-03-29T11:18:43.069Z,26.38
2023-03-29T11:21:31.693Z,26.41
2023-03-29T11:24:26.633Z,25.23
2023-03-29T11:27:22.547Z,25.65
2023-03-29T11:30:05.029Z,25.87
2023-03-29T11:33:15.079Z,25.52
2023-03-29T11:35:53.965Z,26.06
2023-03-29T11:38:27.243Z,28.29
2023-03-29T11:41:00.571Z,28.38
2023-03-29T11:43:34.138Z,28.43
2023-03-29T11:46:18.399Z,27.15
2023-03-29T11:49:04.330Z,27.21
2023-03-29T11:51:41.426Z,29.74
2023-03-29T11:54:25.261Z,29.58
2023-03-29T11:57:30.700Z,26.76
2023-03-29T12:00:07.062Z,29.32
2023-03-29T12:02:42.324Z,28.42
2023-03-29T12:05:18.708Z,27.65
2023-03-29T12:07:53.625Z,27.70
2023-03-29T12:10:26.836Z,31.21
2023-03-29T12:13:05.390Z,27.91
2023-03-29T12:15:41.519Z,26.90
2023-03-29T12:18:24.976Z,28.37
2023-03-29T12:20:59.993Z,31.09
2023-03-29T12:23:30.795Z,27.52
2023-03-29T12:26:22.835Z,26.01
2023-03-29T12:29:28.328Z,26.84
2023-03-29T12:32:00.323Z,29.06
2023-03-29T12:35:01.621Z,26.24
2023-03-29T12:38:06.682Z,28.15
2023-03-29T12:40:43.811Z,29.80
2023-03-29T12:43:27.321Z,27.28
2023-03-29T12:46:01.430Z,25.89
2023-03-29T12:48:30.417Z,26.46
2023-03-29T12:51:03.709Z,27.97
2023-03-29T12:54:00.121Z,26.67
2023-03-29T12:57:01.568Z,28.14
2023-03-29T12:59:43.932Z,25.62
2023-03-29T13:02:14.514Z,27.38
2023-03-29T13:04:42.485Z,25.66
2023-03-29T13:07:24.534Z,26.35
2023-03-29T13:09:53.286Z,25.93
2023-03-29T13:12:43.460Z,25.42
2023-03-29T13:15:23.749Z,26.71
2023-03-29T13:17:54.088Z,27.40
2023-03-29T13:21:17.645Z,28.80
2023-03-29T13:23:56.716Z,26.00
2023-03-29T13:26:41.828Z,25.90
2023-03-29T13:29:47.781Z,26.18
2023-03-29T13:32:37.331Z,28.53
2023-03-29T13:35:13.840Z,26.63
2023-03-29T13:37:55.796Z,25.51
2023-03-29T13:40:41.431Z,25.72
2023-03-29T13:43:17.809Z,25.54
2023-03-29T13:46:11.938Z,25.99
2023-03-29T13:48:39.327Z,25.89
2023-03-29T13:51:13.106Z,27.24
2023-03-29T13:53:49.456Z,26.04
2023-03-29T13:56:29.731Z,26.58
2023-03-29T13:59:05.376Z,25.84
2023-03-29T14:01:39.476Z,29.73
2023-03-29T14:04:14.593Z,25.96
2023-03-29T14:06:45.465Z,26.51
2023-03-29T14:09:16.577Z,25.26
2023-03-29T14:11:46.372Z,28.59
2023-03-29T14:14:14.292Z,25.60
2023-03-29T14:16:42.684Z,26.05
2023-03-29T14:19:17.001Z,25.08
2023-03-29T14:21:45.022Z,26.57
2023-03-29T14:24:19.896Z,25.96
2023-03-29T14:26:48.066Z,25.75
2023-03-29T14:29:15.522Z,26.27
2023-03-29T14:31:43.114Z,27.19
2023-03-29T14:34:18.792Z,25.61
2023-03-29T14:36:48.758Z,26.39
2023-03-29T14:39:20.033Z,26.57
2023-03-29T14:41:51.999Z,26.33
2023-03-29T14:44:22.332Z,25.39
2023-03-29T14:46:49.849Z,25.70
2023-03-29T14:49:19.702Z,26.50
2023-03-29T14:51:48.119Z,30.41
2023-03-29T14:54:32.066Z,26.13
2023-03-29T14:57:03.474Z,25.88
2023-03-29T14:59:36.962Z,26.20
2023-03-29T15:02:21.678Z,28.79
2023-03-29T15:05:07.096Z,26.31
2023-03-29T15:07:38.352Z,26.23
2023-03-29T15:10:06.809Z,26.29
2023-03-29T15:12:36.007Z,29.08
2023-03-29T15:15:03.586Z,26.49
2023-03-29T15:17:50.910Z,26.02
2023-03-29T15:20:22.108Z,26.80
2023-03-29T15:23:15.454Z,26.08
2023-03-29T15:25:57.158Z,26.11
2023-03-29T15:28:29.400Z,25.95
2023-03-29T15:31:14.439Z,26.33
2023-03-29T15:33:42.388Z,28.30
2023-03-29T15:36:12.414Z,26.27
2023-03-29T15:38:44.559Z,26.53
2023-03-29T15:41:15.939Z,28.68
2023-03-29T15:43:43.506Z,26.14
2023-03-29T15:46:13.182Z,26.74
2023-03-29T15:48:41.304Z,26.65
2023-03-29T15:51:12.212Z,30.68
2023-03-29T15:53:40.225Z,26.52
2023-03-29T15:56:09.991Z,27.15
2023-03-29T15:58:41.057Z,28.36
2023-03-29T16:01:37.129Z,27.00
2023-03-29T16:04:12.046Z,28.00
2023-03-29T16:06:39.815Z,28.53
2023-03-29T16:09:07.936Z,28.47
2023-03-29T16:11:35.452Z,29.91
2023-03-29T16:14:07.085Z,28.71
2023-03-29T16:16:37.299Z,28.69
2023-03-29T16:19:04.615Z,28.63
2023-03-29T16:21:31.973Z,29.83
2023-03-29T16:23:59.324Z,28.13
2023-03-29T16:26:26.741Z,28.36
2023-03-29T16:28:54.062Z,27.97
2023-03-29T16:31:21.416Z,31.33
2023-03-29T16:33:48.911Z,28.31
2023-03-29T16:36:16.264Z,28.40
2023-03-29T16:38:43.569Z,28.65
2023-03-29T16:41:15.068Z,27.50
2023-03-29T16:43:43.380Z,29.24
2023-03-29T16:46:11.690Z,28.49
2023-03-29T16:48:39.244Z,28.77
2023-03-29T16:51:06.898Z,29.08
2023-03-29T16:53:34.555Z,29.42
2023-03-29T16:56:04.155Z,29.21
2023-03-29T16:58:31.733Z,29.43
2023-03-29T17:01:07.190Z,30.42
2023-03-29T17:03:52.359Z,29.62
2023-03-29T17:06:37.546Z,30.61
2023-03-29T17:09:22.790Z,30.29
2023-03-29T17:12:08.117Z,35.32
2023-03-29T17:14:53.451Z,31.46
2023-03-29T17:17:38.983Z,37.72
2023-03-29T17:20:27.120Z,37.13
2023-03-29T17:23:12.605Z,32.78
2023-03-29T17:25:57.565Z,31.78
2023-03-29T17:28:42.879Z,32.18
2023-03-29T17:31:28.166Z,33.67
2023-03-29T17:34:14.528Z,32.60
2023-03-29T17:37:00.127Z,33.18
2023-03-29T17:39:45.060Z,33.32
2023-03-29T17:42:30.485Z,34.80
2023-03-29T17:45:16.007Z,34.37
2023-03-29T17:48:02.391Z,43.35
2023-03-29T17:50:49.831Z,39.36
2023-03-29T17:53:34.896Z,38.54
2023-03-29T17:56:20.937Z,30.19
2023-03-29T17:59:06.568Z,31.74
2023-03-29T18:01:51.637Z,36.96
2023-03-29T18:04:37.126Z,33.75
2023-03-29T18:07:23.111Z,33.63
2023-03-29T18:10:08.672Z,34.38
2023-03-29T18:12:57.039Z,35.23
2023-03-29T18:15:42.642Z,35.02
2023-03-29T18:18:28.170Z,35.62
2023-03-29T18:21:15.786Z,36.00
2023-03-29T18:24:00.942Z,36.86
2023-03-29T18:26:52.620Z,36.46
2023-03-29T18:29:44.684Z,36.46
2023-03-29T18:32:36.788Z,39.08
2023-03-29T18:35:28.652Z,36.25
2023-03-29T18:38:22.128Z,36.67
2023-03-29T18:41:14.184Z,36.72
2023-03-29T18:44:05.816Z,37.53
2023-03-29T18:46:57.526Z,36.77
2023-03-29T18:49:49.528Z,36.33
2023-03-29T18:52:41.853Z,37.47
2023-03-29T18:55:33.648Z,37.79
2023-03-29T18:58:25.530Z,38.07
2023-03-29T19:01:17.777Z,37.76
2023-03-29T19:04:09.835Z,39.09
2023-03-29T19:07:01.449Z,38.59
2023-03-29T19:09:53.894Z,37.91
2023-03-29T19:12:49.771Z,39.94
2023-03-29T19:15:42.083Z,39.34
2023-03-29T19:18:33.853Z,39.20
2023-03-29T19:21:28.215Z,41.66
2023-03-29T19:24:20.079Z,39.51
2023-03-29T19:27:12.675Z,39.38
2023-03-29T19:30:06.136Z,38.66
2023-03-29T19:32:57.782Z,40.66
2023-03-29T19:35:50.942Z,39.76
2023-03-29T19:38:42.693Z,39.61
2023-03-29T19:41:34.700Z,40.48
2023-03-29T19:44:26.592Z,40.26
2023-03-29T19:47:19.330Z,40.31
2023-03-29T19:50:10.913Z,40.28
2023-03-29T19:53:02.614Z,40.43
2023-03-29T19:55:54.977Z,40.35
2023-03-29T19:58:46.516Z,39.81
2023-03-29T20:01:38.749Z,39.91
2023-03-29T20:04:30.833Z,39.28
2023-03-29T20:07:22.635Z,40.67
2023-03-29T20:10:14.895Z,42.09
2023-03-29T20:13:06.875Z,44.40
2023-03-29T20:15:58.744Z,43.25
2023-03-29T20:18:50.725Z,42.93
2023-03-29T20:21:44.027Z,44.27
2023-03-29T20:24:35.754Z,45.85
2023-03-29T20:27:27.749Z,44.45
2023-03-29T20:30:19.427Z,43.87
2023-03-29T20:33:11.636Z,48.08
2023-03-29T20:36:04.070Z,45.70
2023-03-29T20:38:55.583Z,44.98
2023-03-29T20:41:47.346Z,45.38
2023-03-29T20:44:38.671Z,45.63
2023-03-29T20:47:33.305Z,45.84
2023-03-29T20:50:25.697Z,45.99
2023-03-29T20:53:17.797Z,46.45
2023-03-29T20:56:09.548Z,46.46
2023-03-29T20:59:01.795Z,46.52
2023-03-29T21:01:53.736Z,46.50
2023-03-29T21:04:50.125Z,46.43
2023-03-29T21:07:42.086Z,44.16
2023-03-29T21:10:33.772Z,44.29
2023-03-29T21:13:25.614Z,44.99
2023-03-29T21:16:17.388Z,43.75
2023-03-29T21:19:10.134Z,42.53
2023-03-29T21:22:01.996Z,43.16
2023-03-29T21:24:54.073Z,43.68
2023-03-29T21:27:46.382Z,42.74
2023-03-29T21:30:37.804Z,43.68
2023-03-29T21:33:30.038Z,47.05
2023-03-29T21:36:22.069Z,44.88
2023-03-29T21:39:08.209Z,45.25
2023-03-29T21:41:35.689Z,45.09
2023-03-29T21:44:03.306Z,46.11
2023-03-29T21:46:30.844Z,45.93
2023-03-29T21:48:58.363Z,46.60
2023-03-29T21:51:25.659Z,45.93
2023-03-29T21:53:53.165Z,46.88
2023-03-29T21:56:20.639Z,45.43
2023-03-29T21:58:47.975Z,45.36
2023-03-29T22:01:15.343Z,44.25
2023-03-29T22:03:42.863Z,45.73
2023-03-29T22:06:13.409Z,45.66
2023-03-29T22:08:41.521Z,44.69
2023-03-29T22:11:12.308Z,44.51
2023-03-29T22:13:40.924Z,44.99
2023-03-29T22:16:09.924Z,43.50
2023-03-29T22:18:37.868Z,43.15
2023-03-29T22:21:05.416Z,43.34
2023-03-29T22:23:32.720Z,45.88
2023-03-29T22:26:05.288Z,44.84
2023-03-29T22:28:33.830Z,44.90
2023-03-29T22:31:05.805Z,44.65
2023-03-29T22:33:35.087Z,45.89
2023-03-29T22:36:11.208Z,44.85
2023-03-29T22:38:38.583Z,44.53
2023-03-29T22:41:06.233Z,45.02
2023-03-29T22:43:34.115Z,47.13
2023-03-29T22:46:01.561Z,46.27
2023-03-29T22:48:29.052Z,47.01
2023-03-29T22:50:56.421Z,48.58
2023-03-29T22:53:23.786Z,48.37
2023-03-29T22:55:51.309Z,49.10
2023-03-29T22:58:19.170Z,48.15
2023-03-29T23:00:46.936Z,48.11
2023-03-29T23:03:14.478Z,47.69
2023-03-29T23:05:41.888Z,47.77
2023-03-29T23:08:09.233Z,47.75
2023-03-29T23:10:36.492Z,47.80
2023-03-29T23:13:04.372Z,48.05
2023-03-29T23:15:32.397Z,48.97
2023-03-29T23:17:59.821Z,47.13
2023-03-29T23:20:27.666Z,48.01
2023-03-29T23:22:55.064Z,47.69
2023-03-29T23:25:22.375Z,47.96
2023-03-29T23:27:49.733Z,48.15
2023-03-29T23:30:18.978Z,47.61
2023-03-29T23:32:46.619Z,47.21
2023-03-29T23:35:14.868Z,48.49
2023-03-29T23:37:42.898Z,49.00
2023-03-29T23:40:11.267Z,48.46
2023-03-29T23:42:38.921Z,48.36
2023-03-29T23:45:08.488Z,48.67
2023-03-29T23:47:35.825Z,48.47
2023-03-29T23:50:04.121Z,48.68
2023-03-29T23:52:32.197Z,49.53
2023-03-29T23:55:00.199Z,48.50
2023-03-29T23:57:28.237Z,48.87
2023-03-29T23:59:56.581Z,49.92
